sensor_id;sensor_type;location;lat;lon;timestamp;pressure;altitude;pressure_sealevel;temperature;humidity
78488;BME280;67885;49.758;9.582;2023-02-26T00:02:14;98791.22;;;5.63;43.64
78488;BME280;67885;49.758;9.582;2023-02-26T00:04:41;98821.91;;;5.75;44.73
78488;BME280;67885;49.758;9.582;2023-02-26T00:07:07;98816.50;;;5.78;44.28
78488;BME280;67885;49.758;9.582;2023-02-26T00:09:34;98825.19;;;5.79;44.99
78488;BME280;67885;49.758;9.582;2023-02-26T00:12:03;98829.31;;;5.83;45.11
78488;BME280;67885;49.758;9.582;2023-02-26T00:14:30;98828.25;;;5.85;44.92
78488;BME280;67885;49.758;9.582;2023-02-26T00:17:22;98829.00;;;5.87;44.51
78488;BME280;67885;49.758;9.582;2023-02-26T00:19:52;98818.16;;;5.79;44.35
78488;BME280;67885;49.758;9.582;2023-02-26T00:22:19;98835.31;;;5.85;44.04
78488;BME280;67885;49.758;9.582;2023-02-26T00:24:46;98835.22;;;5.86;44.53
78488;BME280;67885;49.758;9.582;2023-02-26T00:27:14;98837.53;;;5.91;44.30
78488;BME280;67885;49.758;9.582;2023-02-26T00:29:41;98832.91;;;5.95;45.09
78488;BME280;67885;49.758;9.582;2023-02-26T00:32:09;98792.28;;;5.73;44.87
78488;BME280;67885;49.758;9.582;2023-02-26T00:34:36;98831.88;;;5.97;45.05
78488;BME280;67885;49.758;9.582;2023-02-26T00:37:13;98837.97;;;5.98;44.61
78488;BME280;67885;49.758;9.582;2023-02-26T00:39:51;98831.13;;;5.95;44.16
78488;BME280;67885;49.758;9.582;2023-02-26T00:42:22;98834.72;;;5.94;44.81
78488;BME280;67885;49.758;9.582;2023-02-26T00:44:49;98838.47;;;5.90;44.74
78488;BME280;67885;49.758;9.582;2023-02-26T00:47:24;98827.72;;;5.80;44.41
78488;BME280;67885;49.758;9.582;2023-02-26T00:50:04;98836.97;;;5.86;44.39
78488;BME280;67885;49.758;9.582;2023-02-26T00:52:43;98831.94;;;5.83;44.39
78488;BME280;67885;49.758;9.582;2023-02-26T00:55:11;98801.38;;;5.54;44.93
78488;BME280;67885;49.758;9.582;2023-02-26T00:57:39;98841.28;;;5.74;44.91
78488;BME280;67885;49.758;9.582;2023-02-26T01:00:07;98785.88;;;5.37;44.50
78488;BME280;67885;49.758;9.582;2023-02-26T01:02:37;98837.78;;;5.61;45.66
78488;BME280;67885;49.758;9.582;2023-02-26T01:05:05;98834.72;;;5.54;44.85
78488;BME280;67885;49.758;9.582;2023-02-26T01:07:39;98838.75;;;5.45;45.11
78488;BME280;67885;49.758;9.582;2023-02-26T01:10:09;98836.53;;;5.39;46.22
78488;BME280;67885;49.758;9.582;2023-02-26T01:12:36;98834.28;;;5.33;45.51
78488;BME280;67885;49.758;9.582;2023-02-26T01:15:05;98841.72;;;5.26;46.79
78488;BME280;67885;49.758;9.582;2023-02-26T01:17:40;98838.66;;;5.19;45.52
78488;BME280;67885;49.758;9.582;2023-02-26T01:20:15;98837.47;;;5.11;45.97
78488;BME280;67885;49.758;9.582;2023-02-26T01:22:49;98842.81;;;5.09;46.12
78488;BME280;67885;49.758;9.582;2023-02-26T01:25:22;98840.56;;;5.03;46.70
78488;BME280;67885;49.758;9.582;2023-02-26T01:27:50;98843.59;;;4.97;46.90
78488;BME280;67885;49.758;9.582;2023-02-26T01:30:20;98844.91;;;4.89;46.97
78488;BME280;67885;49.758;9.582;2023-02-26T01:32:52;98846.03;;;4.85;45.65
78488;BME280;67885;49.758;9.582;2023-02-26T01:35:36;98839.47;;;4.78;45.79
78488;BME280;67885;49.758;9.582;2023-02-26T01:38:14;98843.25;;;4.74;46.71
78488;BME280;67885;49.758;9.582;2023-02-26T01:41:11;98837.16;;;4.73;45.79
78488;BME280;67885;49.758;9.582;2023-02-26T01:43:48;98831.81;;;4.61;46.90
78488;BME280;67885;49.758;9.582;2023-02-26T01:46:27;98840.34;;;4.64;46.57
78488;BME280;67885;49.758;9.582;2023-02-26T01:48:58;98837.25;;;4.58;46.58
78488;BME280;67885;49.758;9.582;2023-02-26T01:51:45;98834.81;;;4.54;46.45
78488;BME280;67885;49.758;9.582;2023-02-26T01:54:14;98846.97;;;4.55;46.27
78488;BME280;67885;49.758;9.582;2023-02-26T01:56:43;98846.34;;;4.52;47.29
78488;BME280;67885;49.758;9.582;2023-02-26T01:59:14;98846.50;;;4.49;46.68
78488;BME280;67885;49.758;9.582;2023-02-26T02:01:43;98838.47;;;4.37;46.81
78488;BME280;67885;49.758;9.582;2023-02-26T02:04:13;98846.03;;;4.42;46.83
78488;BME280;67885;49.758;9.582;2023-02-26T02:06:42;98857.38;;;4.43;47.63
78488;BME280;67885;49.758;9.582;2023-02-26T02:09:09;98854.00;;;4.41;47.51
78488;BME280;67885;49.758;9.582;2023-02-26T02:11:46;98854.00;;;4.41;47.70
78488;BME280;67885;49.758;9.582;2023-02-26T02:14:27;98848.94;;;4.37;47.71
78488;BME280;67885;49.758;9.582;2023-02-26T02:17:07;98862.88;;;4.38;47.16
78488;BME280;67885;49.758;9.582;2023-02-26T02:20:06;98858.22;;;4.43;45.64
78488;BME280;67885;49.758;9.582;2023-02-26T02:22:55;98847.00;;;4.41;46.65
78488;BME280;67885;49.758;9.582;2023-02-26T02:25:49;98852.97;;;4.43;45.91
78488;BME280;67885;49.758;9.582;2023-02-26T02:28:35;98824.84;;;4.16;46.07
78488;BME280;67885;49.758;9.582;2023-02-26T02:31:13;98852.41;;;4.38;46.53
78488;BME280;67885;49.758;9.582;2023-02-26T02:33:48;98858.59;;;4.37;46.93
78488;BME280;67885;49.758;9.582;2023-02-26T02:36:22;98850.06;;;4.33;47.24
78488;BME280;67885;49.758;9.582;2023-02-26T02:38:54;98866.63;;;4.34;46.85
78488;BME280;67885;49.758;9.582;2023-02-26T02:41:28;98867.50;;;4.34;46.41
78488;BME280;67885;49.758;9.582;2023-02-26T02:43:59;98866.91;;;4.29;46.91
78488;BME280;67885;49.758;9.582;2023-02-26T02:46:31;98877.50;;;4.28;47.66
78488;BME280;67885;49.758;9.582;2023-02-26T02:49:03;98875.81;;;4.27;47.35
78488;BME280;67885;49.758;9.582;2023-02-26T02:51:33;98873.19;;;4.27;48.06
78488;BME280;67885;49.758;9.582;2023-02-26T02:54:07;98877.31;;;4.31;46.30
78488;BME280;67885;49.758;9.582;2023-02-26T02:56:40;98882.56;;;4.31;47.40
78488;BME280;67885;49.758;9.582;2023-02-26T02:59:15;98882.44;;;4.32;47.06
78488;BME280;67885;49.758;9.582;2023-02-26T03:01:50;98886.09;;;4.15;46.57
78488;BME280;67885;49.758;9.582;2023-02-26T03:04:19;98887.06;;;4.29;46.81
78488;BME280;67885;49.758;9.582;2023-02-26T03:06:46;98889.69;;;4.29;48.36
78488;BME280;67885;49.758;9.582;2023-02-26T03:09:17;98857.41;;;3.98;47.68
78488;BME280;67885;49.758;9.582;2023-02-26T03:11:44;98897.34;;;4.32;46.80
78488;BME280;67885;49.758;9.582;2023-02-26T03:14:14;98891.25;;;4.31;46.51
78488;BME280;67885;49.758;9.582;2023-02-26T03:17:02;98893.72;;;4.34;46.74
78488;BME280;67885;49.758;9.582;2023-02-26T03:19:40;98901.47;;;4.36;47.86
78488;BME280;67885;49.758;9.582;2023-02-26T03:22:19;98908.22;;;4.40;46.87
78488;BME280;67885;49.758;9.582;2023-02-26T03:25:01;98934.16;;;4.45;46.58
78488;BME280;67885;49.758;9.582;2023-02-26T03:27:34;98908.69;;;4.47;47.47
78488;BME280;67885;49.758;9.582;2023-02-26T03:30:08;98915.63;;;4.48;46.36
78488;BME280;67885;49.758;9.582;2023-02-26T03:32:54;98916.28;;;4.51;47.47
78488;BME280;67885;49.758;9.582;2023-02-26T03:35:29;98920.41;;;4.55;46.19
78488;BME280;67885;49.758;9.582;2023-02-26T03:38:05;98922.88;;;4.59;47.10
78488;BME280;67885;49.758;9.582;2023-02-26T03:40:38;98922.88;;;4.59;46.04
78488;BME280;67885;49.758;9.582;2023-02-26T03:43:18;98891.72;;;4.24;46.41
78488;BME280;67885;49.758;9.582;2023-02-26T03:45:52;98925.50;;;4.59;46.59
78488;BME280;67885;49.758;9.582;2023-02-26T03:48:26;98929.69;;;4.61;45.57
78488;BME280;67885;49.758;9.582;2023-02-26T03:51:00;98925.31;;;4.62;46.18
78488;BME280;67885;49.758;9.582;2023-02-26T03:54:13;98929.53;;;4.64;46.04
78488;BME280;67885;49.758;9.582;2023-02-26T03:56:46;98936.63;;;4.62;46.79
78488;BME280;67885;49.758;9.582;2023-02-26T03:59:16;98818.06;;;3.83;45.73
78488;BME280;67885;49.758;9.582;2023-02-26T04:01:49;98928.66;;;4.49;46.50
78488;BME280;67885;49.758;9.582;2023-02-26T04:04:24;98937.53;;;4.47;46.35
78488;BME280;67885;49.758;9.582;2023-02-26T04:06:53;98889.97;;;4.08;46.13
78488;BME280;67885;49.758;9.582;2023-02-26T04:09:20;98938.44;;;4.31;46.37
78488;BME280;67885;49.758;9.582;2023-02-26T04:11:49;98942.09;;;4.29;46.54
78488;BME280;67885;49.758;9.582;2023-02-26T04:14:17;98944.16;;;4.24;46.45
78488;BME280;67885;49.758;9.582;2023-02-26T04:16:45;98947.69;;;4.22;45.94
78488;BME280;67885;49.758;9.582;2023-02-26T04:19:12;98960.03;;;4.20;46.95
78488;BME280;67885;49.758;9.582;2023-02-26T04:21:41;98951.31;;;4.20;47.00
78488;BME280;67885;49.758;9.582;2023-02-26T04:24:08;98944.94;;;4.10;46.52
78488;BME280;67885;49.758;9.582;2023-02-26T04:26:35;98950.34;;;4.07;46.98
78488;BME280;67885;49.758;9.582;2023-02-26T04:29:02;98956.34;;;4.09;46.35
78488;BME280;67885;49.758;9.582;2023-02-26T04:31:29;98949.59;;;4.04;46.28
78488;BME280;67885;49.758;9.582;2023-02-26T04:33:55;98961.09;;;4.02;46.74
78488;BME280;67885;49.758;9.582;2023-02-26T04:36:22;98957.72;;;4.00;46.09
78488;BME280;67885;49.758;9.582;2023-02-26T04:38:50;98858.28;;;3.36;45.37
78488;BME280;67885;49.758;9.582;2023-02-26T04:41:17;98968.56;;;3.94;46.27
78488;BME280;67885;49.758;9.582;2023-02-26T04:43:46;98966.94;;;3.91;46.05
78488;BME280;67885;49.758;9.582;2023-02-26T04:46:22;98968.78;;;3.89;45.48
78488;BME280;67885;49.758;9.582;2023-02-26T04:48:49;98977.59;;;3.88;46.91
78488;BME280;67885;49.758;9.582;2023-02-26T04:51:16;98982.06;;;3.86;46.73
78488;BME280;67885;49.758;9.582;2023-02-26T04:53:43;98978.78;;;3.82;46.29
78488;BME280;67885;49.758;9.582;2023-02-26T04:56:12;98994.47;;;3.82;46.18
78488;BME280;67885;49.758;9.582;2023-02-26T04:58:39;98985.97;;;3.79;45.46
78488;BME280;67885;49.758;9.582;2023-02-26T05:01:09;98883.53;;;3.21;45.45
78488;BME280;67885;49.758;9.582;2023-02-26T05:03:38;98996.53;;;3.77;46.02
78488;BME280;67885;49.758;9.582;2023-02-26T05:06:05;98994.84;;;3.76;45.61
78488;BME280;67885;49.758;9.582;2023-02-26T05:08:32;99000.09;;;3.76;45.85
78488;BME280;67885;49.758;9.582;2023-02-26T05:10:59;99006.34;;;3.74;46.49
78488;BME280;67885;49.758;9.582;2023-02-26T05:13:27;99013.50;;;3.70;46.50
78488;BME280;67885;49.758;9.582;2023-02-26T05:15:55;99016.03;;;3.71;45.64
78488;BME280;67885;49.758;9.582;2023-02-26T05:18:22;99007.25;;;3.72;45.96
78488;BME280;67885;49.758;9.582;2023-02-26T05:20:51;99021.88;;;3.77;47.15
78488;BME280;67885;49.758;9.582;2023-02-26T05:23:18;98992.41;;;3.57;45.85
78488;BME280;67885;49.758;9.582;2023-02-26T05:25:45;99031.94;;;3.84;45.50
78488;BME280;67885;49.758;9.582;2023-02-26T05:28:13;98945.56;;;3.35;45.30
78488;BME280;67885;49.758;9.582;2023-02-26T05:30:41;99034.69;;;3.97;46.20
78488;BME280;67885;49.758;9.582;2023-02-26T05:33:08;99035.31;;;4.02;45.32
78488;BME280;67885;49.758;9.582;2023-02-26T05:35:35;99003.81;;;3.88;46.28
78488;BME280;67885;49.758;9.582;2023-02-26T05:38:02;99035.47;;;4.15;46.86
78488;BME280;67885;49.758;9.582;2023-02-26T05:40:28;99010.88;;;4.02;45.64
78488;BME280;67885;49.758;9.582;2023-02-26T05:42:55;99040.09;;;4.26;46.12
78488;BME280;67885;49.758;9.582;2023-02-26T05:45:22;99048.28;;;4.36;44.96
78488;BME280;67885;49.758;9.582;2023-02-26T05:47:50;99056.91;;;4.38;45.26
78488;BME280;67885;49.758;9.582;2023-02-26T05:50:16;99057.47;;;4.43;45.54
78488;BME280;67885;49.758;9.582;2023-02-26T05:52:43;99055.53;;;4.47;46.23
78488;BME280;67885;49.758;9.582;2023-02-26T05:55:10;99056.03;;;4.53;45.35
78488;BME280;67885;49.758;9.582;2023-02-26T05:57:37;99063.63;;;4.58;44.59
78488;BME280;67885;49.758;9.582;2023-02-26T06:00:05;99055.94;;;4.55;46.18
78488;BME280;67885;49.758;9.582;2023-02-26T06:02:38;99060.66;;;4.64;45.29
78488;BME280;67885;49.758;9.582;2023-02-26T06:05:07;99041.09;;;4.39;45.02
78488;BME280;67885;49.758;9.582;2023-02-26T06:07:34;99076.13;;;4.69;44.69
78488;BME280;67885;49.758;9.582;2023-02-26T06:10:01;99075.28;;;4.68;45.65
78488;BME280;67885;49.758;9.582;2023-02-26T06:12:28;99084.09;;;4.67;45.08
78488;BME280;67885;49.758;9.582;2023-02-26T06:14:54;99079.50;;;4.71;44.82
78488;BME280;67885;49.758;9.582;2023-02-26T06:17:21;99082.88;;;4.73;45.31
78488;BME280;67885;49.758;9.582;2023-02-26T06:19:47;99082.28;;;4.68;46.20
78488;BME280;67885;49.758;9.582;2023-02-26T06:22:15;99091.78;;;4.70;45.49
78488;BME280;67885;49.758;9.582;2023-02-26T06:24:42;99086.19;;;4.77;45.12
78488;BME280;67885;49.758;9.582;2023-02-26T06:27:09;99091.91;;;4.83;45.51
78488;BME280;67885;49.758;9.582;2023-02-26T06:29:36;99096.34;;;4.97;44.37
78488;BME280;67885;49.758;9.582;2023-02-26T06:32:03;99099.47;;;5.04;45.11
78488;BME280;67885;49.758;9.582;2023-02-26T06:34:30;99108.75;;;5.10;44.87
78488;BME280;67885;49.758;9.582;2023-02-26T06:36:57;99112.78;;;5.15;44.35
78488;BME280;67885;49.758;9.582;2023-02-26T06:39:25;99121.53;;;5.16;44.54
78488;BME280;67885;49.758;9.582;2023-02-26T06:41:51;99119.53;;;5.19;44.79
78488;BME280;67885;49.758;9.582;2023-02-26T06:44:18;99118.25;;;5.27;44.12
78488;BME280;67885;49.758;9.582;2023-02-26T06:46:45;99127.25;;;5.37;44.55
78488;BME280;67885;49.758;9.582;2023-02-26T06:49:11;99124.84;;;5.48;43.90
78488;BME280;67885;49.758;9.582;2023-02-26T06:51:38;99138.06;;;5.61;43.90
78488;BME280;67885;49.758;9.582;2023-02-26T06:54:05;99129.47;;;5.59;42.87
78488;BME280;67885;49.758;9.582;2023-02-26T06:56:33;99147.19;;;5.70;43.20
78488;BME280;67885;49.758;9.582;2023-02-26T06:59:00;99147.31;;;5.68;42.44
78488;BME280;67885;49.758;9.582;2023-02-26T07:01:27;99148.22;;;5.67;43.32
78488;BME280;67885;49.758;9.582;2023-02-26T07:03:56;99160.44;;;5.68;42.75
78488;BME280;67885;49.758;9.582;2023-02-26T07:06:22;99160.50;;;5.67;43.16
78488;BME280;67885;49.758;9.582;2023-02-26T07:08:49;99163.22;;;5.65;42.84
78488;BME280;67885;49.758;9.582;2023-02-26T07:11:16;99167.56;;;5.66;43.12
78488;BME280;67885;49.758;9.582;2023-02-26T07:13:44;99174.97;;;5.74;42.14
78488;BME280;67885;49.758;9.582;2023-02-26T07:16:10;99178.16;;;5.79;42.98
78488;BME280;67885;49.758;9.582;2023-02-26T07:18:37;99186.69;;;5.83;42.27
78488;BME280;67885;49.758;9.582;2023-02-26T07:21:04;99192.63;;;5.86;42.86
78488;BME280;67885;49.758;9.582;2023-02-26T07:23:32;99184.94;;;5.83;42.90
78488;BME280;67885;49.758;9.582;2023-02-26T07:25:58;99187.28;;;5.88;42.93
78488;BME280;67885;49.758;9.582;2023-02-26T07:28:26;99196.00;;;5.88;42.46
78488;BME280;67885;49.758;9.582;2023-02-26T07:30:55;99197.69;;;5.89;41.88
78488;BME280;67885;49.758;9.582;2023-02-26T07:33:22;99198.53;;;5.90;42.39
78488;BME280;67885;49.758;9.582;2023-02-26T07:35:49;99209.03;;;5.90;42.76
78488;BME280;67885;49.758;9.582;2023-02-26T07:38:16;99205.56;;;5.89;41.92
78488;BME280;67885;49.758;9.582;2023-02-26T07:40:42;99214.75;;;5.97;41.76
78488;BME280;67885;49.758;9.582;2023-02-26T07:43:09;99218.94;;;6.01;41.67
78488;BME280;67885;49.758;9.582;2023-02-26T07:45:36;99219.50;;;6.06;41.98
78488;BME280;67885;49.758;9.582;2023-02-26T07:48:04;99231.63;;;6.08;41.86
78488;BME280;67885;49.758;9.582;2023-02-26T07:50:30;99230.69;;;6.10;42.02
78488;BME280;67885;49.758;9.582;2023-02-26T07:52:58;99236.59;;;6.13;41.75
78488;BME280;67885;49.758;9.582;2023-02-26T07:55:24;99238.00;;;6.19;42.10
78488;BME280;67885;49.758;9.582;2023-02-26T07:57:52;99241.13;;;6.26;41.99
78488;BME280;67885;49.758;9.582;2023-02-26T08:00:18;99246.75;;;6.34;41.28
78488;BME280;67885;49.758;9.582;2023-02-26T08:02:45;99245.41;;;6.41;40.91
78488;BME280;67885;49.758;9.582;2023-02-26T08:05:14;99239.31;;;6.40;40.77
78488;BME280;67885;49.758;9.582;2023-02-26T08:07:41;99247.75;;;6.46;40.24
78488;BME280;67885;49.758;9.582;2023-02-26T08:10:09;99250.94;;;6.51;41.00
78488;BME280;67885;49.758;9.582;2023-02-26T08:12:36;99256.88;;;6.54;40.26
78488;BME280;67885;49.758;9.582;2023-02-26T08:15:03;99263.31;;;6.63;39.94
78488;BME280;67885;49.758;9.582;2023-02-26T08:17:31;99260.22;;;6.71;40.19
78488;BME280;67885;49.758;9.582;2023-02-26T08:19:58;99263.69;;;6.71;39.86
78488;BME280;67885;49.758;9.582;2023-02-26T08:22:26;99266.25;;;6.73;40.28
78488;BME280;67885;49.758;9.582;2023-02-26T08:24:53;99269.03;;;6.70;40.33
78488;BME280;67885;49.758;9.582;2023-02-26T08:27:20;99266.81;;;6.64;41.26
78488;BME280;67885;49.758;9.582;2023-02-26T08:29:46;99269.00;;;6.57;41.55
78488;BME280;67885;49.758;9.582;2023-02-26T08:32:15;99266.34;;;6.57;42.22
78488;BME280;67885;49.758;9.582;2023-02-26T08:34:44;99268.69;;;6.62;42.49
78488;BME280;67885;49.758;9.582;2023-02-26T08:37:11;99271.31;;;6.76;41.71
78488;BME280;67885;49.758;9.582;2023-02-26T08:39:39;99272.69;;;6.96;40.85
78488;BME280;67885;49.758;9.582;2023-02-26T08:42:08;99268.56;;;7.19;40.53
78488;BME280;67885;49.758;9.582;2023-02-26T08:44:36;99230.66;;;6.95;40.04
78488;BME280;67885;49.758;9.582;2023-02-26T08:47:02;99277.59;;;7.42;40.11
78488;BME280;67885;49.758;9.582;2023-02-26T08:49:29;99282.53;;;7.47;39.31
78488;BME280;67885;49.758;9.582;2023-02-26T08:51:56;99286.53;;;7.40;39.36
78488;BME280;67885;49.758;9.582;2023-02-26T08:54:24;99298.56;;;7.44;39.71
78488;BME280;67885;49.758;9.582;2023-02-26T08:56:52;99307.41;;;7.43;39.19
78488;BME280;67885;49.758;9.582;2023-02-26T08:59:20;99302.25;;;7.41;39.49
78488;BME280;67885;49.758;9.582;2023-02-26T09:01:47;99307.94;;;7.35;39.28
78488;BME280;67885;49.758;9.582;2023-02-26T09:04:14;99299.69;;;7.27;39.37
78488;BME280;67885;49.758;9.582;2023-02-26T09:06:41;99297.66;;;7.31;40.05
78488;BME280;67885;49.758;9.582;2023-02-26T09:09:07;99316.50;;;7.52;39.63
78488;BME280;67885;49.758;9.582;2023-02-26T09:11:34;99314.06;;;7.76;39.57
78488;BME280;67885;49.758;9.582;2023-02-26T09:14:03;99318.00;;;8.09;38.59
78488;BME280;67885;49.758;9.582;2023-02-26T09:16:30;99324.56;;;8.29;38.04
78488;BME280;67885;49.758;9.582;2023-02-26T09:18:59;99326.97;;;8.32;37.04
78488;BME280;67885;49.758;9.582;2023-02-26T09:21:26;99333.50;;;8.26;37.42
78488;BME280;67885;49.758;9.582;2023-02-26T09:23:53;99333.81;;;8.22;37.77
78488;BME280;67885;49.758;9.582;2023-02-26T09:26:20;99332.44;;;8.16;38.53
78488;BME280;67885;49.758;9.582;2023-02-26T09:28:47;99341.50;;;8.12;38.65
78488;BME280;67885;49.758;9.582;2023-02-26T09:31:15;99343.22;;;8.13;37.95
78488;BME280;67885;49.758;9.582;2023-02-26T09:33:41;99339.81;;;8.11;38.15
78488;BME280;67885;49.758;9.582;2023-02-26T09:36:08;99345.44;;;8.19;38.51
78488;BME280;67885;49.758;9.582;2023-02-26T09:38:35;99341.19;;;9.79;39.63
78488;BME280;67885;49.758;9.582;2023-02-26T09:41:05;99348.31;;;12.25;33.59
78488;BME280;67885;49.758;9.582;2023-02-26T09:43:48;99344.91;;;13.76;30.28
78488;BME280;67885;49.758;9.582;2023-02-26T09:46:29;99349.03;;;15.23;28.27
78488;BME280;67885;49.758;9.582;2023-02-26T09:49:08;99344.84;;;15.84;25.89
78488;BME280;67885;49.758;9.582;2023-02-26T09:51:42;99354.19;;;15.52;26.17
78488;BME280;67885;49.758;9.582;2023-02-26T09:54:17;99325.16;;;14.65;26.98
78488;BME280;67885;49.758;9.582;2023-02-26T09:56:46;99360.19;;;14.13;27.42
78488;BME280;67885;49.758;9.582;2023-02-26T09:59:13;99358.41;;;13.34;28.35
78488;BME280;67885;49.758;9.582;2023-02-26T10:01:47;99371.59;;;12.64;29.62
78488;BME280;67885;49.758;9.582;2023-02-26T10:04:29;99368.59;;;11.94;30.61
78488;BME280;67885;49.758;9.582;2023-02-26T10:07:15;99371.56;;;11.36;31.57
78488;BME280;67885;49.758;9.582;2023-02-26T10:10:08;99371.38;;;10.93;32.35
78488;BME280;67885;49.758;9.582;2023-02-26T10:12:40;99371.22;;;10.50;32.84
78488;BME280;67885;49.758;9.582;2023-02-26T10:15:13;99385.41;;;10.13;34.07
78488;BME280;67885;49.758;9.582;2023-02-26T10:17:53;99393.19;;;9.92;34.15
78488;BME280;67885;49.758;9.582;2023-02-26T10:20:28;99385.53;;;9.76;35.21
78488;BME280;67885;49.758;9.582;2023-02-26T10:23:02;99398.59;;;9.66;34.63
78488;BME280;67885;49.758;9.582;2023-02-26T10:25:36;99379.69;;;9.59;34.14
78488;BME280;67885;49.758;9.582;2023-02-26T10:31:04;99400.16;;;10.28;35.29
78488;BME280;67885;49.758;9.582;2023-02-26T10:33:42;99396.75;;;11.19;33.00
78488;BME280;67885;49.758;9.582;2023-02-26T10:36:17;99399.25;;;11.98;31.63
78488;BME280;67885;49.758;9.582;2023-02-26T10:38:48;99399.94;;;12.32;30.25
78488;BME280;67885;49.758;9.582;2023-02-26T10:41:22;99403.69;;;12.30;30.38
78488;BME280;67885;49.758;9.582;2023-02-26T10:43:58;99408.53;;;12.04;30.84
78488;BME280;67885;49.758;9.582;2023-02-26T10:46:36;99405.00;;;11.71;31.17
78488;BME280;67885;49.758;9.582;2023-02-26T10:49:25;99414.13;;;11.34;31.74
78488;BME280;67885;49.758;9.582;2023-02-26T10:51:56;99424.84;;;10.99;32.37
78488;BME280;67885;49.758;9.582;2023-02-26T10:54:33;99423.13;;;10.63;32.69
78488;BME280;67885;49.758;9.582;2023-02-26T10:57:00;99424.97;;;10.39;32.84
78488;BME280;67885;49.758;9.582;2023-02-26T10:59:28;99415.97;;;10.17;33.42
78488;BME280;67885;49.758;9.582;2023-02-26T11:01:56;99385.38;;;9.66;34.20
78488;BME280;67885;49.758;9.582;2023-02-26T11:04:26;99412.13;;;9.61;34.05
78488;BME280;67885;49.758;9.582;2023-02-26T11:06:56;99421.03;;;9.60;33.70
78488;BME280;67885;49.758;9.582;2023-02-26T11:09:26;99412.13;;;9.61;33.60
78488;BME280;67885;49.758;9.582;2023-02-26T11:11:56;99339.38;;;9.32;34.12
78488;BME280;67885;49.758;9.582;2023-02-26T11:14:27;99420.84;;;9.99;33.69
78488;BME280;67885;49.758;9.582;2023-02-26T11:16:55;99422.31;;;10.03;33.68
78488;BME280;67885;49.758;9.582;2023-02-26T11:19:28;99425.19;;;10.00;33.09
78488;BME280;67885;49.758;9.582;2023-02-26T11:21:58;99426.94;;;10.12;32.41
78488;BME280;67885;49.758;9.582;2023-02-26T11:24:31;99432.84;;;10.16;32.30
78488;BME280;67885;49.758;9.582;2023-02-26T11:27:02;99432.84;;;10.16;33.09
78488;BME280;67885;49.758;9.582;2023-02-26T11:29:35;99435.81;;;10.11;34.04
78488;BME280;67885;49.758;9.582;2023-02-26T11:32:04;99432.28;;;10.00;33.31
78488;BME280;67885;49.758;9.582;2023-02-26T11:34:32;99435.81;;;10.11;33.47
78488;BME280;67885;49.758;9.582;2023-02-26T11:37:02;99429.19;;;10.06;33.64
78488;BME280;67885;49.758;9.582;2023-02-26T11:39:34;99430.75;;;9.84;33.60
78488;BME280;67885;49.758;9.582;2023-02-26T11:42:03;99429.75;;;9.74;34.51
78488;BME280;67885;49.758;9.582;2023-02-26T11:44:35;99430.72;;;9.73;33.75
78488;BME280;67885;49.758;9.582;2023-02-26T11:47:06;99433.13;;;9.76;34.29
78488;BME280;67885;49.758;9.582;2023-02-26T11:49:41;99427.59;;;10.03;33.58
78488;BME280;67885;49.758;9.582;2023-02-26T11:52:21;99425.03;;;10.50;33.04
78488;BME280;67885;49.758;9.582;2023-02-26T11:54:56;99429.53;;;10.84;32.47
78488;BME280;67885;49.758;9.582;2023-02-26T11:57:28;99422.09;;;11.00;31.76
78488;BME280;67885;49.758;9.582;2023-02-26T11:59:58;99430.03;;;11.34;32.50
78488;BME280;67885;49.758;9.582;2023-02-26T12:02:26;99428.31;;;11.56;31.50
78488;BME280;67885;49.758;9.582;2023-02-26T12:05:02;99430.84;;;11.57;31.57
78488;BME280;67885;49.758;9.582;2023-02-26T12:07:30;99424.69;;;11.45;30.78
78488;BME280;67885;49.758;9.582;2023-02-26T12:09:57;99435.94;;;11.15;30.79
78488;BME280;67885;49.758;9.582;2023-02-26T12:12:37;99433.13;;;10.71;31.04
78488;BME280;67885;49.758;9.582;2023-02-26T12:15:18;99440.16;;;10.37;32.34
78488;BME280;67885;49.758;9.582;2023-02-26T12:18:03;99431.19;;;10.02;31.98
78488;BME280;67885;49.758;9.582;2023-02-26T12:20:45;99432.06;;;9.78;31.95
78488;BME280;67885;49.758;9.582;2023-02-26T12:23:33;99427.69;;;9.53;32.71
78488;BME280;67885;49.758;9.582;2023-02-26T12:26:21;99437.44;;;9.16;33.18
78488;BME280;67885;49.758;9.582;2023-02-26T12:29:04;99425.63;;;8.96;33.81
78488;BME280;67885;49.758;9.582;2023-02-26T12:32:07;99436.28;;;8.81;34.30
78488;BME280;67885;49.758;9.582;2023-02-26T12:35:03;99435.66;;;8.65;34.55
78488;BME280;67885;49.758;9.582;2023-02-26T12:37:50;99443.34;;;8.55;35.08
78488;BME280;67885;49.758;9.582;2023-02-26T12:40:42;99444.81;;;8.46;34.39
78488;BME280;67885;49.758;9.582;2023-02-26T12:43:15;99439.94;;;8.40;35.01
78488;BME280;67885;49.758;9.582;2023-02-26T12:45:52;99434.41;;;8.30;35.61
78488;BME280;67885;49.758;9.582;2023-02-26T12:48:59;99436.72;;;8.22;36.10
78488;BME280;67885;49.758;9.582;2023-02-26T12:51:40;99430.94;;;8.30;35.98
78488;BME280;67885;49.758;9.582;2023-02-26T12:54:31;99437.78;;;8.32;36.16
78488;BME280;67885;49.758;9.582;2023-02-26T12:57:31;99443.19;;;8.43;36.08
78488;BME280;67885;49.758;9.582;2023-02-26T13:00:16;99448.84;;;8.65;35.83
78488;BME280;67885;49.758;9.582;2023-02-26T13:03:06;99446.75;;;8.96;35.31
78488;BME280;67885;49.758;9.582;2023-02-26T13:05:52;99449.78;;;9.15;35.45
78488;BME280;67885;49.758;9.582;2023-02-26T13:08:27;99456.72;;;9.42;34.07
78488;BME280;67885;49.758;9.582;2023-02-26T13:11:14;99451.72;;;9.50;34.11
78488;BME280;67885;49.758;9.582;2023-02-26T13:13:57;99454.66;;;9.58;34.96
78488;BME280;67885;49.758;9.582;2023-02-26T13:16:38;99456.59;;;9.56;33.96
78488;BME280;67885;49.758;9.582;2023-02-26T13:19:29;99445.50;;;9.51;33.53
78488;BME280;67885;49.758;9.582;2023-02-26T13:22:05;99459.38;;;9.42;33.25
78488;BME280;67885;49.758;9.582;2023-02-26T13:24:41;99458.75;;;9.25;34.07
78488;BME280;67885;49.758;9.582;2023-02-26T13:27:12;99460.03;;;9.20;33.22
78488;BME280;67885;49.758;9.582;2023-02-26T13:29:47;99468.50;;;9.12;33.74
78488;BME280;67885;49.758;9.582;2023-02-26T13:32:18;99455.59;;;9.07;33.93
78488;BME280;67885;49.758;9.582;2023-02-26T13:34:52;99448.41;;;8.97;34.00
78488;BME280;67885;49.758;9.582;2023-02-26T13:37:24;99465.66;;;9.02;34.57
78488;BME280;67885;49.758;9.582;2023-02-26T13:40:04;99463.97;;;9.01;33.27